createdAt,value
2018-09-25T00:00:33.099Z,79.00
2018-09-25T00:03:08.161Z,79.13
2018-09-25T00:05:42.750Z,79.10
2018-09-25T00:08:18.784Z,79.35
2018-09-25T00:10:54.362Z,79.08
2018-09-25T00:13:29.300Z,79.24
2018-09-25T00:16:04.527Z,79.26
2018-09-25T00:18:39.837Z,78.87
2018-09-25T00:21:15.511Z,78.97
2018-09-25T00:23:50.376Z,79.37
2018-09-25T00:26:25.792Z,78.99
2018-09-25T00:29:02.732Z,78.87
2018-09-25T00:31:38.075Z,78.90
2018-09-25T00:34:13.631Z,78.68
2018-09-25T00:36:49.050Z,78.57
2018-09-25T00:39:24.034Z,78.95
2018-09-25T00:41:59.321Z,78.90
2018-09-25T00:44:35.956Z,79.04
2018-09-25T00:47:11.686Z,79.16
2018-09-25T00:49:46.779Z,79.67
2018-09-25T00:52:22.121Z,79.87
2018-09-25T00:54:57.371Z,80.03
2018-09-25T00:57:32.000Z,79.96
2018-09-25T01:00:07.962Z,79.89
2018-09-25T01:02:44.019Z,79.66
2018-09-25T01:05:20.165Z,79.54
2018-09-25T01:07:55.510Z,79.68
2018-09-25T01:10:30.793Z,79.47
2018-09-25T01:13:06.365Z,79.26
2018-09-25T01:15:41.185Z,79.38
2018-09-25T01:18:20.509Z,79.64
2018-09-25T01:20:56.391Z,79.99
2018-09-25T01:23:31.663Z,80.21
2018-09-25T01:26:14.676Z,80.38
2018-09-25T01:28:49.652Z,80.08
2018-09-25T01:31:26.289Z,80.31
2018-09-25T01:34:01.142Z,80.32
2018-09-25T01:36:37.081Z,80.45
2018-09-25T01:39:13.501Z,80.30
2018-09-25T01:41:48.560Z,80.46
2018-09-25T01:44:23.678Z,80.40
2018-09-25T01:46:59.320Z,80.47
2018-09-25T01:49:35.043Z,80.86
2018-09-25T01:52:10.067Z,81.38
2018-09-25T01:54:45.506Z,80.98
2018-09-25T01:57:20.866Z,81.22
2018-09-25T01:59:56.712Z,81.77
2018-09-25T02:02:32.076Z,81.64
2018-09-25T02:05:07.068Z,81.89
2018-09-25T02:07:42.279Z,81.98
2018-09-25T02:10:17.978Z,81.52
2018-09-25T02:12:53.011Z,82.39
2018-09-25T02:15:29.729Z,82.79
2018-09-25T02:18:05.639Z,82.55
2018-09-25T02:20:40.761Z,82.30
2018-09-25T02:23:15.497Z,81.95
2018-09-25T02:25:51.139Z,81.85
2018-09-25T02:28:26.192Z,81.38
2018-09-25T02:31:02.145Z,81.40
2018-09-25T02:33:37.574Z,81.27
2018-09-25T02:36:12.630Z,81.34
2018-09-25T02:38:47.749Z,81.07
2018-09-25T02:41:22.622Z,81.77
2018-09-25T02:43:58.350Z,81.63
2018-09-25T02:46:33.630Z,81.94
2018-09-25T02:49:08.574Z,81.77
2018-09-25T02:51:43.767Z,82.25
2018-09-25T02:54:18.997Z,81.83
2018-09-25T02:56:55.028Z,82.24
2018-09-25T02:59:30.277Z,82.01
2018-09-25T03:02:06.454Z,81.83
2018-09-25T03:04:41.812Z,82.10
2018-09-25T03:07:17.101Z,82.39
2018-09-25T03:09:52.895Z,82.37
2018-09-25T03:12:28.323Z,82.60
2018-09-25T03:15:04.372Z,82.42
2018-09-25T03:17:40.851Z,82.44
2018-09-25T03:20:16.563Z,82.76
2018-09-25T03:22:52.060Z,82.63
2018-09-25T03:25:26.765Z,82.45
2018-09-25T03:28:02.007Z,82.55
2018-09-25T03:30:37.249Z,82.99
2018-09-25T03:33:12.872Z,83.44
2018-09-25T03:35:48.379Z,83.49
2018-09-25T03:38:23.764Z,83.98
2018-09-25T03:40:58.788Z,83.64
2018-09-25T03:43:34.518Z,83.23
2018-09-25T03:46:10.600Z,82.99
2018-09-25T03:48:45.194Z,82.15
2018-09-25T03:51:20.373Z,81.93
2018-09-25T03:53:55.456Z,81.45
2018-09-25T03:56:31.973Z,81.18
2018-09-25T03:59:07.879Z,80.68
2018-09-25T04:01:42.959Z,80.52
2018-09-25T04:04:17.647Z,80.34
2018-09-25T04:06:53.449Z,80.71
2018-09-25T04:09:29.239Z,80.53
2018-09-25T04:12:03.862Z,80.36
2018-09-25T04:14:39.750Z,80.39
2018-09-25T04:17:15.120Z,80.23
2018-09-25T04:19:50.539Z,80.10
2018-09-25T04:22:26.197Z,80.00
2018-09-25T04:25:01.803Z,79.60
2018-09-25T04:27:36.678Z,79.77
2018-09-25T04:30:12.623Z,79.70
2018-09-25T04:32:48.061Z,79.63
2018-09-25T04:35:22.970Z,79.30
2018-09-25T04:37:58.265Z,79.32
2018-09-25T04:40:33.438Z,79.09
2018-09-25T04:43:08.622Z,79.47
2018-09-25T04:45:43.960Z,79.82
2018-09-25T04:48:18.765Z,79.77
2018-09-25T04:50:53.472Z,79.68
2018-09-25T04:53:30.091Z,79.80
2018-09-25T04:56:06.056Z,79.47
2018-09-25T04:58:40.789Z,80.06
2018-09-25T05:01:15.749Z,80.64
2018-09-25T05:03:50.605Z,80.29
2018-09-25T05:06:26.022Z,80.60
2018-09-25T05:09:01.645Z,80.50
2018-09-25T05:11:36.280Z,79.97
2018-09-25T05:14:10.927Z,79.53
2018-09-25T05:16:45.538Z,79.46
2018-09-25T05:19:21.467Z,79.48
2018-09-25T05:21:56.668Z,79.39
2018-09-25T05:24:32.047Z,79.17
2018-09-25T05:27:07.134Z,79.37
2018-09-25T05:29:42.143Z,79.13
2018-09-25T05:32:17.389Z,79.14
2018-09-25T05:34:52.314Z,78.70
2018-09-25T05:37:27.645Z,78.64
2018-09-25T05:40:02.798Z,78.21
2018-09-25T05:42:37.957Z,77.88
2018-09-25T05:45:13.788Z,78.11
2018-09-25T05:47:48.638Z,78.60
2018-09-25T05:50:24.010Z,78.40
2018-09-25T05:52:59.309Z,78.42
2018-09-25T05:55:35.207Z,78.47
2018-09-25T05:58:10.116Z,78.90
2018-09-25T06:00:45.156Z,79.18
2018-09-25T06:03:20.333Z,78.89
2018-09-25T06:05:55.692Z,78.95
2018-09-25T06:08:30.752Z,78.60
2018-09-25T06:11:07.186Z,78.71
2018-09-25T06:13:42.159Z,78.87
2018-09-25T06:16:19.278Z,78.69
2018-09-25T06:18:53.884Z,78.73
2018-09-25T06:21:29.085Z,78.37
2018-09-25T06:24:04.011Z,78.34
2018-09-25T06:26:39.372Z,78.23
2018-09-25T06:29:14.048Z,78.83
2018-09-25T06:31:49.091Z,78.80
2018-09-25T06:34:24.063Z,78.81
2018-09-25T06:36:59.015Z,78.62
2018-09-25T06:39:33.731Z,78.45
2018-09-25T06:42:08.611Z,78.99
2018-09-25T06:44:43.498Z,79.06
2018-09-25T06:47:18.311Z,79.04
2018-09-25T06:49:53.742Z,78.65
2018-09-25T06:52:29.120Z,78.50
2018-09-25T06:55:08.470Z,78.46
2018-09-25T06:57:43.464Z,78.79
2018-09-25T07:00:18.366Z,78.87
2018-09-25T07:02:53.409Z,78.85
2018-09-25T07:05:28.157Z,78.32
2018-09-25T07:08:03.428Z,78.11
2018-09-25T07:10:38.402Z,77.67
2018-09-25T07:13:14.226Z,76.89
2018-09-25T07:15:49.653Z,76.77
2018-09-25T07:18:24.848Z,76.19
2018-09-25T07:20:59.704Z,75.45
2018-09-25T07:23:34.705Z,75.25
2018-09-25T07:26:09.450Z,75.30
2018-09-25T07:28:44.703Z,74.73
2018-09-25T07:31:19.777Z,74.16
2018-09-25T07:33:54.978Z,73.47
2018-09-25T07:36:29.844Z,72.94
2018-09-25T07:39:05.186Z,72.54
2018-09-25T07:41:41.441Z,72.22
2018-09-25T07:44:17.726Z,72.22
2018-09-25T07:46:53.552Z,71.98
2018-09-25T07:49:28.148Z,71.33
2018-09-25T07:52:03.264Z,70.54
2018-09-25T07:54:39.029Z,70.62
2018-09-25T07:57:14.285Z,70.37
2018-09-25T07:59:49.209Z,69.63
2018-09-25T08:02:24.253Z,69.84
2018-09-25T08:04:59.255Z,70.06
2018-09-25T08:07:34.365Z,69.54
2018-09-25T08:10:10.822Z,68.92
2018-09-25T08:12:46.925Z,68.57
2018-09-25T08:15:21.670Z,67.83
2018-09-25T08:17:56.895Z,67.28
2018-09-25T08:20:31.638Z,66.74
2018-09-25T08:23:07.217Z,66.25
2018-09-25T08:25:41.948Z,65.01
2018-09-25T08:28:17.443Z,63.78
2018-09-25T08:30:52.159Z,63.62
2018-09-25T08:33:27.914Z,63.11
2018-09-25T08:36:02.848Z,62.20
2018-09-25T08:38:38.641Z,61.73
2018-09-25T08:41:13.917Z,59.52
2018-09-25T08:43:49.146Z,61.65
2018-09-25T08:46:24.083Z,63.65
2018-09-25T08:48:59.022Z,63.06
2018-09-25T08:51:33.952Z,63.20
2018-09-25T08:54:08.994Z,62.46
2018-09-25T08:56:44.146Z,61.89
2018-09-25T08:59:19.722Z,61.70
2018-09-25T09:01:54.603Z,61.37
2018-09-25T09:04:29.893Z,61.63
2018-09-25T09:07:04.982Z,60.86
2018-09-25T09:09:41.228Z,61.14
2018-09-25T09:12:15.842Z,60.82
2018-09-25T09:14:50.777Z,61.33
2018-09-25T09:17:26.151Z,61.46
2018-09-25T09:20:01.646Z,60.67
2018-09-25T09:22:36.960Z,57.52
2018-09-25T09:25:11.819Z,57.43
2018-09-25T09:27:47.511Z,57.40
2018-09-25T09:30:22.244Z,56.98
2018-09-25T09:32:57.249Z,56.98
2018-09-25T09:35:32.476Z,57.52
2018-09-25T09:38:07.950Z,57.31
2018-09-25T09:40:42.688Z,55.84
2018-09-25T09:43:17.930Z,55.25
2018-09-25T09:45:52.679Z,53.03
2018-09-25T09:48:27.212Z,53.19
2018-09-25T09:51:02.068Z,50.96
2018-09-25T09:53:37.803Z,50.95
2018-09-25T09:56:12.990Z,52.04
2018-09-25T09:58:48.297Z,50.90
2018-09-25T10:01:23.042Z,50.33
2018-09-25T10:03:58.577Z,50.21
2018-09-25T10:06:33.444Z,50.59
2018-09-25T10:09:09.123Z,49.46
2018-09-25T10:11:44.604Z,47.72
2018-09-25T10:14:20.078Z,47.74
2018-09-25T10:16:55.571Z,47.05
2018-09-25T10:19:31.492Z,46.63
2018-09-25T10:22:06.998Z,46.88
2018-09-25T10:24:42.795Z,46.35
2018-09-25T10:27:17.647Z,45.67
2018-09-25T10:29:53.219Z,46.45
2018-09-25T10:32:28.709Z,47.89
2018-09-25T10:35:03.522Z,48.04
2018-09-25T10:37:40.172Z,48.21
2018-09-25T10:40:15.358Z,49.00
2018-09-25T10:42:52.024Z,48.13
2018-09-25T10:45:26.778Z,49.53
2018-09-25T10:48:01.707Z,48.22
2018-09-25T10:50:36.738Z,47.76
2018-09-25T10:53:13.431Z,47.73
2018-09-25T10:55:48.710Z,46.46
2018-09-25T10:58:24.054Z,46.52
2018-09-25T11:00:59.501Z,46.27
2018-09-25T11:03:34.751Z,46.04
2018-09-25T11:06:09.824Z,46.01
2018-09-25T11:08:45.701Z,44.13
2018-09-25T11:11:20.334Z,43.95
2018-09-25T11:13:55.222Z,44.79
2018-09-25T11:16:29.971Z,43.83
2018-09-25T11:19:04.971Z,43.01
2018-09-25T11:21:41.054Z,43.88
2018-09-25T11:24:16.374Z,43.90
2018-09-25T11:26:51.366Z,44.29
2018-09-25T11:29:26.598Z,44.32
2018-09-25T11:32:01.588Z,44.94
2018-09-25T11:34:37.921Z,43.86
2018-09-25T11:37:12.706Z,41.81
2018-09-25T11:39:47.824Z,41.88
2018-09-25T11:42:22.828Z,41.22
2018-09-25T11:44:57.816Z,41.83
2018-09-25T11:47:32.948Z,42.30
2018-09-25T11:50:08.296Z,43.58
2018-09-25T11:52:43.750Z,44.21
2018-09-25T11:55:18.793Z,43.59
2018-09-25T11:57:54.476Z,43.32
2018-09-25T12:00:29.744Z,42.78
2018-09-25T12:03:05.019Z,43.18
2018-09-25T12:05:40.500Z,43.43
2018-09-25T12:08:15.905Z,43.77
2018-09-25T12:10:50.761Z,43.66
2018-09-25T12:13:26.394Z,43.98
2018-09-25T12:16:01.280Z,43.42
2018-09-25T12:18:37.710Z,43.16
2018-09-25T12:21:13.044Z,44.05
2018-09-25T12:23:47.922Z,44.59
2018-09-25T12:26:23.106Z,43.86
2018-09-25T12:28:58.685Z,44.14
2018-09-25T12:31:34.866Z,42.62
2018-09-25T12:34:10.134Z,42.13
2018-09-25T12:36:44.985Z,42.80
2018-09-25T12:39:20.010Z,42.44
2018-09-25T12:41:54.750Z,43.13
2018-09-25T12:44:29.778Z,42.92
2018-09-25T12:47:06.525Z,42.71
2018-09-25T12:49:41.952Z,42.45
2018-09-25T12:52:17.265Z,42.26
2018-09-25T12:54:52.763Z,40.98
2018-09-25T12:57:28.253Z,41.03
2018-09-25T13:00:03.562Z,40.60
2018-09-25T13:02:39.584Z,39.18
2018-09-25T13:05:15.224Z,39.31
2018-09-25T13:07:52.110Z,39.90
2018-09-25T13:10:27.263Z,39.82
2018-09-25T13:13:02.084Z,40.26
2018-09-25T13:15:36.712Z,40.13
2018-09-25T13:18:14.218Z,39.68
2018-09-25T13:20:49.593Z,38.96
2018-09-25T13:23:24.830Z,39.83
2018-09-25T13:26:00.928Z,39.15
2018-09-25T13:28:36.108Z,39.15
2018-09-25T13:31:12.044Z,38.58
2018-09-25T13:33:47.431Z,37.50
2018-09-25T13:36:22.071Z,38.54
2018-09-25T13:38:57.937Z,37.54
2018-09-25T13:41:34.145Z,37.36
2018-09-25T13:44:11.044Z,37.46
2018-09-25T13:46:45.969Z,38.75
2018-09-25T13:49:21.350Z,39.29
2018-09-25T13:51:56.247Z,38.70
2018-09-25T13:54:33.431Z,39.31
2018-09-25T13:57:08.988Z,38.92
2018-09-25T13:59:46.168Z,39.73
2018-09-25T14:02:22.073Z,39.38
2018-09-25T14:04:59.428Z,39.15
2018-09-25T14:07:40.591Z,35.93
2018-09-25T14:10:17.068Z,35.54
2018-09-25T14:13:01.412Z,35.92
2018-09-25T14:15:39.329Z,35.94
2018-09-25T14:18:14.489Z,37.00
2018-09-25T14:20:55.615Z,37.82
2018-09-25T14:30:42.138Z,37.12
2018-09-25T14:33:17.607Z,37.49
2018-09-25T14:35:52.960Z,36.97
2018-09-25T14:38:29.010Z,37.35
2018-09-25T14:41:04.553Z,37.01
2018-09-25T14:43:39.665Z,36.60
2018-09-25T14:46:15.407Z,37.44
2018-09-25T14:48:54.095Z,36.99
2018-09-25T14:51:29.235Z,38.20
2018-09-25T14:54:04.409Z,38.28
2018-09-25T14:56:39.787Z,37.89
2018-09-25T14:59:15.684Z,38.28
2018-09-25T15:01:52.305Z,38.66
2018-09-25T15:04:27.882Z,39.21
2018-09-25T15:07:02.951Z,39.38
2018-09-25T15:09:38.125Z,38.94
2018-09-25T15:12:14.740Z,38.36
2018-09-25T15:14:50.868Z,39.00
2018-09-25T15:17:26.244Z,38.82
2018-09-25T15:20:03.401Z,37.98
2018-09-25T15:22:38.800Z,38.55
2018-09-25T15:25:13.758Z,38.37
2018-09-25T15:27:49.617Z,38.40
2018-09-25T15:30:25.629Z,38.31
2018-09-25T15:33:00.779Z,38.53
2018-09-25T15:35:36.252Z,38.04
2018-09-25T15:38:12.882Z,39.09
2018-09-25T15:40:47.574Z,38.91
2018-09-25T15:43:22.551Z,38.96
2018-09-25T15:45:59.508Z,38.56
2018-09-25T15:48:38.195Z,38.42
2018-09-25T15:51:15.336Z,38.60
2018-09-25T15:53:51.521Z,37.99
2018-09-25T15:56:27.676Z,38.37
2018-09-25T15:59:03.763Z,37.61
2018-09-25T16:01:40.868Z,37.96
2018-09-25T16:04:16.036Z,38.04
2018-09-25T16:06:51.955Z,38.26
2018-09-25T16:09:28.447Z,37.61
2018-09-25T16:12:05.044Z,37.84
2018-09-25T16:14:41.918Z,38.47
2018-09-25T16:17:18.439Z,38.75
2018-09-25T16:19:53.335Z,38.98
2018-09-25T16:22:29.260Z,39.41
2018-09-25T16:25:04.280Z,39.23
2018-09-25T16:27:39.869Z,39.53
2018-09-25T16:30:14.821Z,39.55
2018-09-25T16:32:49.937Z,40.61
2018-09-25T16:35:24.828Z,41.11
2018-09-25T16:38:00.131Z,41.57
2018-09-25T16:40:35.011Z,42.12
2018-09-25T16:43:11.072Z,42.35
2018-09-25T16:45:46.360Z,43.34
2018-09-25T16:48:22.948Z,42.84
2018-09-25T16:50:58.441Z,43.96
2018-09-25T16:53:33.543Z,43.75
2018-09-25T16:56:08.710Z,43.35
2018-09-25T16:58:44.646Z,43.05
2018-09-25T17:01:20.691Z,44.41
2018-09-25T17:03:56.531Z,44.69
2018-09-25T17:06:32.160Z,44.78
2018-09-25T17:09:08.052Z,45.92
2018-09-25T17:11:43.595Z,47.36
2018-09-25T17:14:18.758Z,47.41
2018-09-25T17:16:55.785Z,47.89
2018-09-25T17:19:31.704Z,48.08
2018-09-25T17:22:07.197Z,48.43
2018-09-25T17:24:41.930Z,49.54
2018-09-25T17:27:18.075Z,50.41
2018-09-25T17:29:52.877Z,50.84
2018-09-25T17:32:28.379Z,51.03
2018-09-25T17:35:03.658Z,51.39
2018-09-25T17:37:38.836Z,51.88
2018-09-25T17:40:16.091Z,52.13
2018-09-25T17:42:51.571Z,52.86
2018-09-25T17:45:27.418Z,53.21
2018-09-25T17:48:03.869Z,52.77
2018-09-25T17:50:38.653Z,53.41
2018-09-25T17:53:14.991Z,53.81
2018-09-25T17:55:50.441Z,53.99
2018-09-25T17:58:25.880Z,54.31
2018-09-25T18:01:01.993Z,55.13
2018-09-25T18:03:38.444Z,55.42
2018-09-25T18:06:14.302Z,56.00
2018-09-25T18:08:53.735Z,57.34
2018-09-25T18:11:30.007Z,57.17
2018-09-25T18:14:04.859Z,57.38
2018-09-25T18:16:39.848Z,57.74
2018-09-25T18:19:15.061Z,58.02
2018-09-25T18:21:50.884Z,57.70
2018-09-25T18:24:27.728Z,58.30
2018-09-25T18:27:03.601Z,59.18
2018-09-25T18:29:40.186Z,59.58
2018-09-25T18:32:15.549Z,60.30
2018-09-25T18:34:50.259Z,61.07
2018-09-25T18:37:26.906Z,60.86
2018-09-25T18:40:03.184Z,61.41
2018-09-25T18:42:38.725Z,61.64
2018-09-25T18:45:13.679Z,61.57
2018-09-25T18:47:48.650Z,61.37
2018-09-25T18:50:24.294Z,62.05
2018-09-25T18:53:00.957Z,61.89
2018-09-25T18:55:37.571Z,61.62
2018-09-25T18:58:14.353Z,61.73
2018-09-25T19:00:50.249Z,62.47
2018-09-25T19:03:26.161Z,62.59
2018-09-25T19:06:01.898Z,62.58
2018-09-25T19:08:38.310Z,62.72
2018-09-25T19:11:13.476Z,64.33
2018-09-25T19:13:49.032Z,64.00
2018-09-25T19:16:23.784Z,63.99
2018-09-25T19:18:59.665Z,63.80
2018-09-25T19:21:35.392Z,64.11
2018-09-25T19:24:11.337Z,64.22
2018-09-25T19:26:46.037Z,64.12
2018-09-25T19:29:20.722Z,63.87
2018-09-25T19:31:56.711Z,64.15
2018-09-25T19:34:32.549Z,64.82
2018-09-25T19:37:07.826Z,64.78
2018-09-25T19:39:42.949Z,65.14
2018-09-25T19:42:18.183Z,65.43
2018-09-25T19:44:53.899Z,65.40
2018-09-25T19:47:30.291Z,65.47
2018-09-25T19:50:05.856Z,65.10
2018-09-25T19:52:41.091Z,65.45
2018-09-25T19:55:15.791Z,65.58
2018-09-25T19:57:50.741Z,65.12
2018-09-25T20:00:25.417Z,65.46
2018-09-25T20:03:00.831Z,65.59
2018-09-25T20:05:37.506Z,65.06
2018-09-25T20:08:12.921Z,65.34
2018-09-25T20:10:47.839Z,65.54
2018-09-25T20:13:23.316Z,65.26
2018-09-25T20:15:58.391Z,65.24
2018-09-25T20:18:35.187Z,65.17
2018-09-25T20:21:10.513Z,64.91
2018-09-25T20:23:45.672Z,65.10
2018-09-25T20:26:22.866Z,65.49
2018-09-25T20:28:58.511Z,65.57
2018-09-25T20:31:33.434Z,65.01
2018-09-25T20:34:08.449Z,64.72
2018-09-25T20:36:43.360Z,64.79
2018-09-25T20:39:18.426Z,64.85
2018-09-25T20:41:53.437Z,64.54
2018-09-25T20:44:28.586Z,64.61
2018-09-25T20:47:03.696Z,64.94
2018-09-25T20:49:38.859Z,64.85
2018-09-25T20:52:14.427Z,64.50
2018-09-25T20:54:50.035Z,64.25
2018-09-25T20:57:26.980Z,64.39
2018-09-25T21:00:03.390Z,64.28
2018-09-25T21:02:38.444Z,64.54
2018-09-25T21:05:13.295Z,64.30
2018-09-25T21:07:48.142Z,64.41
2018-09-25T21:10:23.705Z,64.04
2018-09-25T21:12:58.973Z,64.21
2018-09-25T21:15:34.626Z,64.21
2018-09-25T21:18:09.528Z,64.29
2018-09-25T21:20:44.078Z,64.04
2018-09-25T21:23:20.611Z,64.14
2018-09-25T21:25:56.041Z,64.15
2018-09-25T21:28:31.788Z,64.15
2018-09-25T21:31:06.668Z,64.05
2018-09-25T21:33:42.832Z,64.49
2018-09-25T21:36:18.405Z,64.63
2018-09-25T21:38:53.558Z,64.71
2018-09-25T21:41:29.737Z,65.09
2018-09-25T21:44:05.107Z,65.39
2018-09-25T21:46:40.181Z,65.18
2018-09-25T21:49:15.052Z,65.16
2018-09-25T21:51:49.850Z,65.08
2018-09-25T21:54:24.927Z,65.06
2018-09-25T21:57:00.230Z,64.82
2018-09-25T21:59:35.701Z,65.01
2018-09-25T22:02:10.792Z,65.09
2018-09-25T22:04:46.295Z,65.12
2018-09-25T22:07:21.197Z,65.13
2018-09-25T22:09:56.019Z,65.07
2018-09-25T22:12:30.761Z,65.24
2018-09-25T22:15:05.331Z,65.42
2018-09-25T22:17:40.171Z,65.39
2018-09-25T22:20:14.818Z,65.19
2018-09-25T22:22:50.270Z,65.62
2018-09-25T22:25:26.821Z,65.21
2018-09-25T22:28:03.398Z,65.49
2018-09-25T22:30:38.253Z,65.34
2018-09-25T22:33:14.042Z,65.51
2018-09-25T22:35:49.186Z,65.48
2018-09-25T22:38:24.141Z,65.43
2018-09-25T22:40:59.425Z,65.27
2018-09-25T22:43:34.857Z,65.29
2018-09-25T22:46:09.572Z,65.42
2018-09-25T22:48:44.212Z,65.29
2018-09-25T22:51:19.867Z,65.27
2018-09-25T22:53:55.510Z,65.44
2018-09-25T22:56:30.183Z,65.80
2018-09-25T22:59:05.423Z,65.46
2018-09-25T23:01:40.608Z,65.72
2018-09-25T23:04:16.034Z,65.65
2018-09-25T23:06:51.543Z,65.80
2018-09-25T23:09:26.870Z,65.55
2018-09-25T23:12:02.428Z,65.99
2018-09-25T23:14:37.831Z,65.99
2018-09-25T23:17:13.437Z,65.98
2018-09-25T23:19:48.649Z,66.11
2018-09-25T23:22:24.111Z,66.05
2018-09-25T23:24:59.001Z,66.23
2018-09-25T23:27:34.220Z,65.89
2018-09-25T23:30:10.390Z,65.93
2018-09-25T23:32:45.533Z,66.03
2018-09-25T23:35:21.455Z,66.15
2018-09-25T23:37:57.609Z,65.89
2018-09-25T23:41:01.784Z,65.91
2018-09-25T23:43:51.430Z,65.79
2018-09-25T23:46:29.584Z,65.94
2018-09-25T23:49:37.450Z,66.37
2018-09-25T23:52:18.344Z,66.10
2018-09-25T23:55:07.726Z,66.34
2018-09-25T23:57:42.150Z,66.36
